<?xml version="1.0" encoding="UTF-8" standalone="no" ?>
<gpx xmlns="http://www.topografix.com/GPX/1/1" xmlns:xsi="http://www.w3.org/2001/XMLSchema-instance" xsi:schemaLocation="http://www.topografix.com/GPX/1/1 http://www.topografix.com/GPX/1/1/gpx.xsd" version="1.1" creator="VisuGPX - https://www.visugpx.com">
  <metadata>
    <name>GR11_002 Saint-Quentin-En-Yvelines (N) &gt; Plaisir-Grignon (N)</name>
    <desc><![CDATA[Départ : Saint-Quentin-En-Yvelines (N)
Arrivée : Plaisir-Grignon (N)]]></desc>
  </metadata>
  <trk>
    <name><![CDATA[GR11_002 Saint-Quentin-En-Yvelines (N) > Plaisir-Grignon (N)]]></name>
    <extensions>
      <line xmlns="http://www.topografix.com/GPX/gpx_style/0/2">
        <color>0000FF</color>
        <width>4</width>
      </line>
    </extensions>
    <trkseg>
      <trkpt lat="48.78651" lon="2.04522">
        <ele>163.22265625</ele>
        <time>2025-01-19T20:30:19Z</time>
      </trkpt>
      <trkpt lat="48.78625" lon="2.04552">
        <ele>163.06640625</ele>
        <time>2025-01-19T20:30:22Z</time>
      </trkpt>
      <trkpt lat="48.78595" lon="2.04584">
        <ele>163.06640625</ele>
        <time>2025-01-19T20:30:31Z</time>
      </trkpt>
      <trkpt lat="48.786" lon="2.04597">
        <ele>163.06640625</ele>
        <time>2025-01-19T20:30:32Z</time>
      </trkpt>
      <trkpt lat="48.78556" lon="2.04644">
        <ele>163.06640625</ele>
        <time>2025-01-19T20:30:33Z</time>
      </trkpt>
      <trkpt lat="48.78551" lon="2.04634">
        <ele>163.10546875</ele>
        <time>2025-01-19T20:30:35Z</time>
      </trkpt>
      <trkpt lat="48.78534" lon="2.04656">
        <ele>163.3828125</ele>
        <time>2025-01-19T20:25:18Z</time>
      </trkpt>
      <trkpt lat="48.78409" lon="2.04799">
        <ele>164.3359375</ele>
        <time>2025-01-19T20:25:11Z</time>
      </trkpt>
      <trkpt lat="48.78406" lon="2.04807">
        <ele>164.3046875</ele>
        <time>2025-01-19T20:30:49Z</time>
      </trkpt>
      <trkpt lat="48.78398" lon="2.04808">
        <ele>164.0859375</ele>
        <time>2025-01-19T20:30:53Z</time>
      </trkpt>
      <trkpt lat="48.78382" lon="2.04804">
        <ele>163.7265625</ele>
        <time>2025-01-19T20:30:56Z</time>
      </trkpt>
      <trkpt lat="48.78355" lon="2.04798">
        <ele>162.90625</ele>
        <time>2025-01-19T20:30:58Z</time>
      </trkpt>
      <trkpt lat="48.78335" lon="2.04794">
        <ele>162.1328125</ele>
        <time>2025-01-19T20:30:59Z</time>
      </trkpt>
      <trkpt lat="48.78327" lon="2.04806">
        <ele>161.5234375</ele>
        <time>2025-01-19T20:31:02Z</time>
      </trkpt>
      <trkpt lat="48.78326" lon="2.04819">
        <ele>161.1953125</ele>
        <time>2025-01-19T20:31:03Z</time>
      </trkpt>
      <trkpt lat="48.78286" lon="2.04818">
        <ele>159.9765625</ele>
        <time>2025-01-19T20:31:05Z</time>
      </trkpt>
      <trkpt lat="48.78241" lon="2.04809">
        <ele>158.52734375</ele>
        <time>2025-01-19T20:31:13Z</time>
      </trkpt>
      <trkpt lat="48.78229" lon="2.04792">
        <ele>157.95703125</ele>
        <time>2025-01-19T20:31:14Z</time>
      </trkpt>
      <trkpt lat="48.78225" lon="2.04785">
        <ele>157.81640625</ele>
        <time>2025-01-19T20:31:16Z</time>
      </trkpt>
      <trkpt lat="48.78217" lon="2.04795">
        <ele>157.74609375</ele>
        <time>2025-01-19T20:31:17Z</time>
      </trkpt>
      <trkpt lat="48.78175" lon="2.04794">
        <ele>156.5546875</ele>
        <time>2025-01-19T20:31:19Z</time>
      </trkpt>
      <trkpt lat="48.78134" lon="2.04785">
        <ele>154.43359375</ele>
        <time>2025-01-19T20:31:25Z</time>
      </trkpt>
      <trkpt lat="48.78105" lon="2.04809">
        <ele>153.984375</ele>
        <time>2025-01-19T20:31:26Z</time>
      </trkpt>
      <trkpt lat="48.78061" lon="2.04815">
        <ele>153.296875</ele>
        <time>2025-01-19T20:31:28Z</time>
      </trkpt>
      <trkpt lat="48.7803" lon="2.04868">
        <ele>153.2265625</ele>
        <time>2025-01-19T20:31:30Z</time>
      </trkpt>
      <trkpt lat="48.78011" lon="2.04893">
        <ele>152.28515625</ele>
        <time>2025-01-19T20:31:32Z</time>
      </trkpt>
      <trkpt lat="48.78019" lon="2.04925">
        <ele>152.7265625</ele>
        <time>2025-01-19T20:31:33Z</time>
      </trkpt>
      <trkpt lat="48.78025" lon="2.05007">
        <ele>152.859375</ele>
        <time>2025-01-19T20:31:34Z</time>
      </trkpt>
      <trkpt lat="48.78026" lon="2.05275">
        <ele>153.390625</ele>
        <time>2025-01-19T20:31:39Z</time>
      </trkpt>
      <trkpt lat="48.77983" lon="2.05411">
        <ele>152.4375</ele>
        <time>2025-01-19T20:31:41Z</time>
      </trkpt>
      <trkpt lat="48.77886" lon="2.05901">
        <ele>154.03125</ele>
        <time>2025-01-19T20:31:46Z</time>
      </trkpt>
      <trkpt lat="48.77899" lon="2.05958">
        <ele>156.33984375</ele>
        <time>2025-01-19T20:31:51Z</time>
      </trkpt>
      <trkpt lat="48.7788" lon="2.05974">
        <ele>154.078125</ele>
        <time>2025-01-19T20:31:52Z</time>
      </trkpt>
      <trkpt lat="48.77857" lon="2.06025">
        <ele>151.86328125</ele>
        <time>2025-01-19T20:31:53Z</time>
      </trkpt>
      <trkpt lat="48.7785" lon="2.06131">
        <ele>147.0859375</ele>
        <time>2025-01-19T20:32:03Z</time>
      </trkpt>
      <trkpt lat="48.77844" lon="2.06175">
        <ele>146.70703125</ele>
        <time>2025-01-19T20:32:15Z</time>
      </trkpt>
      <trkpt lat="48.77791" lon="2.0619">
        <ele>138.7734375</ele>
        <time>2025-01-19T20:32:17Z</time>
      </trkpt>
      <trkpt lat="48.7784" lon="2.06243">
        <ele>140.20703125</ele>
        <time>2025-01-19T20:32:18Z</time>
      </trkpt>
      <trkpt lat="48.77833" lon="2.06317">
        <ele>136.328125</ele>
        <time>2025-01-19T20:32:21Z</time>
      </trkpt>
      <trkpt lat="48.77931" lon="2.0654">
        <ele>137.15625</ele>
        <time>2025-01-19T20:32:24Z</time>
      </trkpt>
      <trkpt lat="48.78042" lon="2.06817">
        <ele>133.1171875</ele>
        <time>2025-01-19T20:32:29Z</time>
      </trkpt>
      <trkpt lat="48.78189" lon="2.07124">
        <ele>135.78515625</ele>
        <time>2025-01-19T20:32:34Z</time>
      </trkpt>
      <trkpt lat="48.78207" lon="2.07484">
        <ele>133.390625</ele>
        <time>2025-01-19T20:32:38Z</time>
      </trkpt>
      <trkpt lat="48.78567" lon="2.08113">
        <ele>135.6796875</ele>
        <time>2025-01-19T20:32:46Z</time>
      </trkpt>
      <trkpt lat="48.7868" lon="2.08114">
        <ele>133.08984375</ele>
        <time>2025-01-19T20:32:49Z</time>
      </trkpt>
      <trkpt lat="48.78803" lon="2.08202">
        <ele>135.15234375</ele>
        <time>2025-01-19T20:32:53Z</time>
      </trkpt>
      <trkpt lat="48.78791" lon="2.07845">
        <ele>141.26171875</ele>
        <time>2025-01-19T20:32:54Z</time>
      </trkpt>
      <trkpt lat="48.78782" lon="2.07623">
        <ele>145.71875</ele>
        <time>2025-01-19T20:33:00Z</time>
      </trkpt>
      <trkpt lat="48.7881" lon="2.07257">
        <ele>152.05078125</ele>
        <time>2025-01-19T20:33:04Z</time>
      </trkpt>
      <trkpt lat="48.78871" lon="2.06985">
        <ele>155.6640625</ele>
        <time>2025-01-19T20:33:08Z</time>
      </trkpt>
      <trkpt lat="48.78956" lon="2.07029">
        <ele>160.1953125</ele>
        <time>2025-01-19T20:33:09Z</time>
      </trkpt>
      <trkpt lat="48.79105" lon="2.07086">
        <ele>163.36328125</ele>
        <time>2025-01-19T20:33:14Z</time>
      </trkpt>
      <trkpt lat="48.79121" lon="2.0707">
        <ele>163.90234375</ele>
        <time>2025-01-19T20:33:24Z</time>
      </trkpt>
      <trkpt lat="48.79004" lon="2.06956">
        <ele>161.40234375</ele>
        <time>2025-01-19T20:33:25Z</time>
      </trkpt>
      <trkpt lat="48.78997" lon="2.06769">
        <ele>160.76953125</ele>
        <time>2025-01-19T20:33:27Z</time>
      </trkpt>
      <trkpt lat="48.79083" lon="2.06556">
        <ele>162.09765625</ele>
        <time>2025-01-19T20:33:28Z</time>
      </trkpt>
      <trkpt lat="48.79199" lon="2.06477">
        <ele>163.06640625</ele>
        <time>2025-01-19T20:33:30Z</time>
      </trkpt>
      <trkpt lat="48.79321" lon="2.06436">
        <ele>162.4453125</ele>
        <time>2025-01-19T20:33:33Z</time>
      </trkpt>
      <trkpt lat="48.79335" lon="2.0641">
        <ele>162.25</ele>
        <time>2025-01-19T20:33:34Z</time>
      </trkpt>
      <trkpt lat="48.79414" lon="2.06377">
        <ele>163.85546875</ele>
        <time>2025-01-19T20:33:35Z</time>
      </trkpt>
      <trkpt lat="48.79587" lon="2.05964">
        <ele>168.0703125</ele>
        <time>2025-01-19T20:33:44Z</time>
      </trkpt>
      <trkpt lat="48.79687" lon="2.05776">
        <ele>165.28125</ele>
        <time>2025-01-19T20:33:47Z</time>
      </trkpt>
      <trkpt lat="48.79758" lon="2.05691">
        <ele>165.703125</ele>
        <time>2025-01-19T20:33:49Z</time>
      </trkpt>
      <trkpt lat="48.80018" lon="2.05253">
        <ele>170.01953125</ele>
        <time>2025-01-19T20:33:53Z</time>
      </trkpt>
      <trkpt lat="48.80034" lon="2.05156">
        <ele>173.578125</ele>
        <time>2025-01-19T20:33:58Z</time>
      </trkpt>
      <trkpt lat="48.80067" lon="2.05195">
        <ele>173.67578125</ele>
        <time>2025-01-19T20:33:59Z</time>
      </trkpt>
      <trkpt lat="48.80081" lon="2.05223">
        <ele>172.58203125</ele>
        <time>2025-01-19T20:34:00Z</time>
      </trkpt>
      <trkpt lat="48.80454" lon="2.04897">
        <ele>159.02734375</ele>
        <time>2025-01-19T20:34:07Z</time>
      </trkpt>
      <trkpt lat="48.80551" lon="2.04651">
        <ele>170.19921875</ele>
        <time>2025-01-19T20:34:11Z</time>
      </trkpt>
      <trkpt lat="48.80597" lon="2.03716">
        <ele>173.07421875</ele>
        <time>2025-01-19T20:34:15Z</time>
      </trkpt>
      <trkpt lat="48.80629" lon="2.0373">
        <ele>172.19140625</ele>
        <time>2025-01-19T20:34:16Z</time>
      </trkpt>
      <trkpt lat="48.80675" lon="2.0377">
        <ele>170.8828125</ele>
        <time>2025-01-19T20:34:31Z</time>
      </trkpt>
      <trkpt lat="48.80753" lon="2.03617">
        <ele>155.32421875</ele>
        <time>2025-01-19T20:34:33Z</time>
      </trkpt>
      <trkpt lat="48.80821" lon="2.0337">
        <ele>159.41015625</ele>
        <time>2025-01-19T20:34:35Z</time>
      </trkpt>
      <trkpt lat="48.80922" lon="2.03026">
        <ele>155.2109375</ele>
        <time>2025-01-19T20:34:36Z</time>
      </trkpt>
      <trkpt lat="48.81038" lon="2.0198">
        <ele>169.390625</ele>
        <time>2025-01-19T20:34:42Z</time>
      </trkpt>
      <trkpt lat="48.81496" lon="2.01342">
        <ele>143.6015625</ele>
        <time>2025-01-19T20:34:48Z</time>
      </trkpt>
      <trkpt lat="48.81282" lon="2.01217">
        <ele>172.33203125</ele>
        <time>2025-01-19T20:34:51Z</time>
      </trkpt>
      <trkpt lat="48.81107" lon="2.01278">
        <ele>175</ele>
        <time>2025-01-19T20:35:05Z</time>
      </trkpt>
      <trkpt lat="48.81002" lon="2.0119">
        <ele>173.93359375</ele>
        <time>2025-01-19T20:35:07Z</time>
      </trkpt>
      <trkpt lat="48.81052" lon="2.01003">
        <ele>173.11328125</ele>
        <time>2025-01-19T20:35:16Z</time>
      </trkpt>
      <trkpt lat="48.81084" lon="2.00815">
        <ele>171.50390625</ele>
        <time>2025-01-19T20:35:16Z</time>
      </trkpt>
      <trkpt lat="48.81116" lon="2.00422">
        <ele>169.58984375</ele>
        <time>2025-01-19T20:35:19Z</time>
      </trkpt>
      <trkpt lat="48.81129" lon="2.00122">
        <ele>166.93359375</ele>
        <time>2025-01-19T20:35:23Z</time>
      </trkpt>
      <trkpt lat="48.81135" lon="1.99953">
        <ele>163.37890625</ele>
        <time>2025-01-19T20:35:28Z</time>
      </trkpt>
      <trkpt lat="48.81145" lon="1.99693">
        <ele>167.62109375</ele>
        <time>2025-01-19T20:35:29Z</time>
      </trkpt>
      <trkpt lat="48.81143" lon="1.99356">
        <ele>169.99609375</ele>
        <time>2025-01-19T20:35:31Z</time>
      </trkpt>
      <trkpt lat="48.81198" lon="1.98994">
        <ele>169.30859375</ele>
        <time>2025-01-19T20:35:32Z</time>
      </trkpt>
      <trkpt lat="48.81314" lon="1.98488">
        <ele>170.61328125</ele>
        <time>2025-01-19T20:35:34Z</time>
      </trkpt>
      <trkpt lat="48.81393" lon="1.98298">
        <ele>174.08203125</ele>
        <time>2025-01-19T20:35:42Z</time>
      </trkpt>
      <trkpt lat="48.81429" lon="1.98214">
        <ele>174.73828125</ele>
        <time>2025-01-19T20:35:49Z</time>
      </trkpt>
      <trkpt lat="48.81483" lon="1.98083">
        <ele>173.2890625</ele>
        <time>2025-01-19T20:35:51Z</time>
      </trkpt>
      <trkpt lat="48.81458" lon="1.97709">
        <ele>174.953125</ele>
        <time>2025-01-19T20:35:52Z</time>
      </trkpt>
      <trkpt lat="48.81403" lon="1.96972">
        <ele>170.375</ele>
        <time>2025-01-19T20:35:54Z</time>
      </trkpt>
      <trkpt lat="48.81378" lon="1.96644">
        <ele>167.98828125</ele>
        <time>2025-01-19T20:35:55Z</time>
      </trkpt>
      <trkpt lat="48.81446" lon="1.96606">
        <ele>163.1171875</ele>
        <time>2025-01-19T20:35:56Z</time>
      </trkpt>
      <trkpt lat="48.81558" lon="1.96453">
        <ele>141.60546875</ele>
        <time>2025-01-19T20:35:58Z</time>
      </trkpt>
      <trkpt lat="48.81666" lon="1.9636">
        <ele>133.62890625</ele>
        <time>2025-01-19T20:36:02Z</time>
      </trkpt>
      <trkpt lat="48.81752" lon="1.9623">
        <ele>129.7578125</ele>
        <time>2025-01-19T20:36:11Z</time>
      </trkpt>
      <trkpt lat="48.81843" lon="1.96227">
        <ele>127.6640625</ele>
        <time>2025-01-19T20:36:15Z</time>
      </trkpt>
      <trkpt lat="48.81859" lon="1.96151">
        <ele>127.33203125</ele>
        <time>2025-01-19T20:36:16Z</time>
      </trkpt>
      <trkpt lat="48.81873" lon="1.96065">
        <ele>126.8828125</ele>
        <time>2025-01-19T20:36:23Z</time>
      </trkpt>
      <trkpt lat="48.81879" lon="1.96029">
        <ele>126.84765625</ele>
        <time>2025-01-19T20:36:29Z</time>
      </trkpt>
      <trkpt lat="48.81891" lon="1.95953">
        <ele>126.65234375</ele>
        <time>2025-01-19T20:36:31Z</time>
      </trkpt>
      <trkpt lat="48.8197" lon="1.95686">
        <ele>122.7265625</ele>
        <time>2025-01-19T20:36:38Z</time>
      </trkpt>
      <trkpt lat="48.82014" lon="1.95393">
        <ele>122.37109375</ele>
        <time>2025-01-19T20:36:40Z</time>
      </trkpt>
      <trkpt lat="48.82" lon="1.95274">
        <ele>121.91796875</ele>
        <time>2025-01-19T20:36:41Z</time>
      </trkpt>
      <trkpt lat="48.81903" lon="1.95178">
        <ele>120.00390625</ele>
        <time>2025-01-19T20:36:44Z</time>
      </trkpt>
      <trkpt lat="48.81829" lon="1.95189">
        <ele>116.82421875</ele>
        <time>2025-01-19T20:37:04Z</time>
      </trkpt>
      <trkpt lat="48.81816" lon="1.95243">
        <ele>117.1171875</ele>
        <time>2025-01-19T20:37:08Z</time>
      </trkpt>
      <trkpt lat="48.81788" lon="1.9523">
        <ele>115.23046875</ele>
        <time>2025-01-19T20:37:09Z</time>
      </trkpt>
      <trkpt lat="48.81736" lon="1.95196">
        <ele>110.83203125</ele>
        <time>2025-01-19T20:37:11Z</time>
      </trkpt>
      <trkpt lat="48.81722" lon="1.95143">
        <ele>109.47265625</ele>
        <time>2025-01-19T20:37:13Z</time>
      </trkpt>
      <trkpt lat="48.81729" lon="1.95088">
        <ele>109.1171875</ele>
        <time>2025-01-19T20:37:21Z</time>
      </trkpt>
      <trkpt lat="48.81675" lon="1.95059">
        <ele>109.72265625</ele>
        <time>2025-01-19T20:37:22Z</time>
      </trkpt>
      <trkpt lat="48.81667" lon="1.94981">
        <ele>110.4921875</ele>
        <time>2025-01-19T20:37:24Z</time>
      </trkpt>
      <trkpt lat="48.81668" lon="1.94854">
        <ele>110.69140625</ele>
        <time>2025-01-19T20:37:30Z</time>
      </trkpt>
      <trkpt lat="48.8169" lon="1.94864">
        <ele>110.265625</ele>
        <time>2025-01-19T20:37:31Z</time>
      </trkpt>
      <trkpt lat="48.81746" lon="1.94893">
        <ele>109.1484375</ele>
        <time>2025-01-19T20:37:32Z</time>
      </trkpt>
      <trkpt lat="48.81788" lon="1.94889">
        <ele>109.1171875</ele>
        <time>2025-01-19T20:37:34Z</time>
      </trkpt>
      <trkpt lat="48.81768" lon="1.94767">
        <ele>108.79296875</ele>
        <time>2025-01-19T20:37:36Z</time>
      </trkpt>
      <trkpt lat="48.81793" lon="1.9471">
        <ele>107.921875</ele>
        <time>2025-01-19T20:37:37Z</time>
      </trkpt>
      <trkpt lat="48.81842" lon="1.94708">
        <ele>108.58203125</ele>
        <time>2025-01-19T20:37:39Z</time>
      </trkpt>
      <trkpt lat="48.81984" lon="1.94432">
        <ele>106.73828125</ele>
        <time>2025-01-19T20:37:44Z</time>
      </trkpt>
      <trkpt lat="48.82118" lon="1.94453">
        <ele>106.98828125</ele>
        <time>2025-01-19T20:39:57Z</time>
      </trkpt>
      <trkpt lat="48.82294" lon="1.9448">
        <ele>104.8671875</ele>
        <time>2025-01-19T20:37:55Z</time>
      </trkpt>
      <trkpt lat="48.8246" lon="1.94506">
        <ele>103.01953125</ele>
        <time>2025-01-19T20:37:58Z</time>
      </trkpt>
      <trkpt lat="48.8253" lon="1.94498">
        <ele>103.21484375</ele>
        <time>2025-01-19T20:37:59Z</time>
      </trkpt>
      <trkpt lat="48.82542" lon="1.94495">
        <ele>103.4765625</ele>
        <time>2025-01-19T20:38:15Z</time>
      </trkpt>
      <trkpt lat="48.826" lon="1.94414">
        <ele>103.046875</ele>
        <time>2025-01-19T20:38:17Z</time>
      </trkpt>
      <trkpt lat="48.82672" lon="1.94373">
        <ele>102.44140625</ele>
        <time>2025-01-19T20:38:19Z</time>
      </trkpt>
      <trkpt lat="48.82828" lon="1.94364">
        <ele>100.8828125</ele>
        <time>2025-01-19T20:38:29Z</time>
      </trkpt>
      <trkpt lat="48.82864" lon="1.94365">
        <ele>100.77734375</ele>
        <time>2025-01-19T20:38:37Z</time>
      </trkpt>
      <trkpt lat="48.82879" lon="1.9436">
        <ele>100.7421875</ele>
        <time>2025-01-19T20:38:37Z</time>
      </trkpt>
      <trkpt lat="48.82895" lon="1.94346">
        <ele>100.47265625</ele>
        <time>2025-01-19T20:38:41Z</time>
      </trkpt>
      <trkpt lat="48.82935" lon="1.94304">
        <ele>100.58203125</ele>
        <time>2025-01-19T20:38:42Z</time>
      </trkpt>
      <trkpt lat="48.82989" lon="1.94242">
        <ele>99.375</ele>
        <time>2025-01-19T20:38:54Z</time>
      </trkpt>
      <trkpt lat="48.83046" lon="1.94181">
        <ele>99.1484375</ele>
        <time>2025-01-19T20:38:56Z</time>
      </trkpt>
      <trkpt lat="48.83105" lon="1.94153">
        <ele>99.88671875</ele>
        <time>2025-01-19T20:38:57Z</time>
      </trkpt>
      <trkpt lat="48.83154" lon="1.9415">
        <ele>100.44140625</ele>
        <time>2025-01-19T20:38:59Z</time>
      </trkpt>
      <trkpt lat="48.83158" lon="1.94262">
        <ele>104.58984375</ele>
        <time>2025-01-19T20:39:02Z</time>
      </trkpt>
    </trkseg>
  </trk>
</gpx>